METAR Data
IDs: Format: Raw Decoded Include TAF

Data at: 2137 UTC 01 Dec 2021

METAR for:KLUK (Cincinnati/Lunken Ar, OH, US)
Text:KLUK 012053Z 22004KT 10SM BKN038 OVC049 10/08 A2991 RMK AO2 SLP130 T01000078 56033
Temperature: 10.0°C ( 50°F)
Dewpoint: 7.8°C ( 46°F) [RH = 86%]
Pressure (altimeter):29.91 inches Hg (1013.0 mb) [Sea level pressure: 1013.0 mb]
Winds:from the SW (220 degrees) at 5 MPH (4 knots; 2.1 m/s)
Visibility:10 or more sm (16+ km)
Ceiling:3800 feet AGL
Clouds: broken clouds at 3800 feet AGL, overcast cloud deck at 4900 feet AGL